Time;durP1;ratioP1;P1;durP2;ratioP2;P2;SDS_P1;SDS_P2;PMS_P1;PMS_P2;Temp;Humidity;BMP_temperature;BMP_pressure;BME280_temperature;BME280_humidity;BME280_pressure;Samples;Min_cycle;Max_cycle;Signal;HPM_P1;HPM_P2
2023/05/10 00:02:03;;;;;;;;;0.00;0.00;;;;;-147.47;100.00;64613.53;5092054;28;45166;-84
2023/05/10 00:04:28;;;;;;;;;4.33;1.33;;;;;-147.47;100.00;64613.53;5069626;28;45381;-84
2023/05/10 00:06:54;;;;;;;;;0.67;0.67;;;;;-147.47;100.00;64613.53;5075293;27;45412;-85
2023/05/10 00:09:20;;;;;;;;;2.00;1.00;;;;;-147.47;100.00;64613.53;5060015;28;45815;-84
2023/05/10 00:11:46;;;;;;;;;1.33;0.00;;;;;-147.47;100.00;64613.53;5079774;28;45933;-83
2023/05/10 00:14:11;;;;;;;;;5.67;2.00;;;;;-147.47;100.00;64613.53;5061332;28;45641;-82
2023/05/10 00:16:37;;;;;;;;;2.00;2.00;;;;;-147.47;100.00;64613.53;5065696;28;46512;-82
2023/05/10 00:19:02;;;;;;;;;2.67;1.67;;;;;-147.47;100.00;64613.53;5073471;28;45692;-82
2023/05/10 00:21:28;;;;;;;;;5.00;1.33;;;;;-147.47;100.00;64613.53;5070108;28;45554;-83
2023/05/10 00:23:54;;;;;;;;;0.67;0.67;;;;;-147.47;100.00;64613.53;5047356;28;45784;-83
2023/05/10 00:26:20;;;;;;;;;1.67;1.67;;;;;-147.47;100.00;64613.53;5055136;28;47410;-77
2023/05/10 00:28:45;;;;;;;;;1.67;0.67;;;;;-147.47;100.00;64613.53;5050793;28;45399;-80
2023/05/10 00:31:11;;;;;;;;;1.33;1.00;;;;;-147.47;100.00;64613.53;5076389;28;45970;-80
2023/05/10 00:33:36;;;;;;;;;0.00;0.00;;;;;-147.47;100.00;64613.53;5072443;27;45861;-80
2023/05/10 00:36:02;;;;;;;;;0.00;0.00;;;;;-147.47;100.00;64613.53;5055597;28;46289;-78
2023/05/10 00:38:27;;;;;;;;;0.33;0.00;;;;;-147.47;100.00;64613.53;5070615;28;45846;-80
2023/05/10 00:40:52;;;;;;;;;0.33;0.33;;;;;-147.47;100.00;64613.53;5075731;28;46112;-80
2023/05/10 00:43:18;;;;;;;;;2.00;1.00;;;;;-147.47;100.00;64613.53;5062969;28;46066;-79
2023/05/10 00:45:47;;;;;;;;;0.67;0.67;;;;;-147.47;100.00;64613.53;5075051;28;45661;-79
2023/05/10 00:48:13;;;;;;;;;0.00;0.00;;;;;-147.47;100.00;64613.53;5073703;27;45747;-78
2023/05/10 00:50:39;;;;;;;;;1.67;0.33;;;;;-147.47;100.00;64613.53;5085159;27;45795;-78
2023/05/10 00:53:06;;;;;;;;;0.00;0.00;;;;;-147.47;100.00;64613.53;5063576;27;46003;-79
2023/05/10 00:55:31;;;;;;;;;0.00;0.00;;;;;-147.47;100.00;64613.53;5075799;27;45883;-79
2023/05/10 00:57:58;;;;;;;;;0.00;0.00;;;;;-147.47;100.00;64613.53;5063815;27;45526;-82
2023/05/10 01:00:23;;;;;;;;;0.00;0.00;;;;;-147.47;100.00;64613.53;5075400;28;45770;-83
2023/05/10 01:02:49;;;;;;;;;0.00;0.00;;;;;-147.47;100.00;64613.53;5059179;28;46035;-81
2023/05/10 01:05:17;;;;;;;;;0.00;0.00;;;;;-147.47;100.00;64613.53;5089161;27;45462;-83
2023/05/10 01:07:42;;;;;;;;;2.00;0.00;;;;;-147.47;100.00;64613.53;5059183;28;45504;-84
2023/05/10 01:10:10;;;;;;;;;0.00;0.00;;;;;-147.47;100.00;64613.53;5080279;27;45335;-83
2023/05/10 01:12:39;;;;;;;;;0.33;0.00;;;;;-147.47;100.00;64613.53;5050648;28;45866;-79
2023/05/10 01:15:10;;;;;;;;;0.00;0.00;;;;;-147.47;100.00;64613.53;5073721;27;45866;-79
2023/05/10 01:17:42;;;;;;;;;1.00;0.00;;;;;-147.47;100.00;64613.53;5061190;28;45664;-78
2023/05/10 01:20:10;;;;;;;;;1.00;1.00;;;;;-147.47;100.00;64613.53;5074573;28;45620;-79
2023/05/10 01:23:14;;;;;;;;;0.67;0.67;;;;;-147.47;100.00;64613.53;5066689;28;45771;-80
2023/05/10 01:26:08;;;;;;;;;1.00;1.00;;;;;-147.47;100.00;64613.53;5073527;28;46569;-78
2023/05/10 01:28:49;;;;;;;;;2.67;2.00;;;;;-147.47;100.00;64613.53;5072805;28;45492;-79
2023/05/10 01:31:33;;;;;;;;;0.67;0.67;;;;;-147.47;100.00;64613.53;5072749;27;45474;-80
2023/05/10 01:34:23;;;;;;;;;0.67;0.67;;;;;-147.47;100.00;64613.53;5073294;28;45825;-79
2023/05/10 01:36:55;;;;;;;;;0.00;0.00;;;;;-147.47;100.00;64613.53;5049089;28;46140;-78
2023/05/10 01:39:31;;;;;;;;;0.00;0.00;;;;;-147.47;100.00;64613.53;5062318;28;45682;-78
2023/05/10 01:42:07;;;;;;;;;1.00;0.00;;;;;-147.47;100.00;64613.53;5069883;28;45842;-78
2023/05/10 01:45:31;;;;;;;;;0.00;0.00;;;;;-147.47;100.00;64613.53;5052855;28;46824;-82
2023/05/10 01:52:49;;;;;;;;;;;;;;;;;;;;;
2023/05/10 01:59:47;;;;;;;;;;;;;;;;;;;;;
2023/05/10 02:02:52;;;;;;;;;0.33;0.00;;;;;-147.47;100.00;64613.53;4908678;28;75193;-82
2023/05/10 02:05:24;;;;;;;;;0.33;0.00;;;;;-147.47;100.00;64613.53;4937086;28;45665;-82
2023/05/10 02:08:02;;;;;;;;;1.00;0.33;;;;;-147.47;100.00;64613.53;5069317;28;45740;-81
2023/05/10 02:13:39;;;;;;;;;0.00;0.00;;;;;-147.47;100.00;64613.53;5030502;28;45570;-82
2023/05/10 02:16:41;;;;;;;;;0.67;0.33;;;;;-147.47;100.00;64613.53;5057359;28;46191;-81
2023/05/10 02:19:59;;;;;;;;;1.67;0.00;;;;;-147.47;100.00;64613.53;5057155;28;45528;-82
2023/05/10 02:22:44;;;;;;;;;0.67;0.00;;;;;-147.47;100.00;64613.53;5059760;28;45766;-82
2023/05/10 02:25:33;;;;;;;;;0.00;0.00;;;;;-147.47;100.00;64613.53;5053916;28;46104;-81
2023/05/10 02:28:13;;;;;;;;;0.00;0.00;;;;;-147.47;100.00;64613.53;5052850;28;45463;-83
2023/05/10 02:31:35;;;;;;;;;;;;;;;;;;;;;
2023/05/10 02:34:51;;;;;;;;;;;;;;;;;;;;;
2023/05/10 02:37:28;;;;;;;;;0.00;0.00;;;;;-147.47;100.00;64613.53;5044277;28;75679;-82
2023/05/10 02:40:01;;;;;;;;;0.33;0.00;;;;;-147.47;100.00;64613.53;5033037;28;45391;-83
2023/05/10 02:42:52;;;;;;;;;0.00;0.00;;;;;-147.47;100.00;64613.53;5038061;28;45766;-83
2023/05/10 02:53:17;;;;;;;;;2.00;0.33;;;;;-147.47;100.00;64613.53;4939119;28;45443;-84
2023/05/10 03:00:19;;;;;;;;;1.67;0.00;;;;;-147.47;100.00;64613.53;4817611;29;45595;-84
2023/05/10 03:03:56;;;;;;;;;1.00;1.00;;;;;-147.47;100.00;64613.53;4850045;29;46348;-84
2023/05/10 03:13:50;;;;;;;;;0.00;0.00;;;;;-147.47;100.00;64613.53;4872846;28;45892;-84
2023/05/10 03:16:38;;;;;;;;;0.33;0.33;;;;;-147.47;100.00;64613.53;4898944;28;46686;-82
2023/05/10 03:27:07;;;;;;;;;0.00;0.00;;;;;-147.47;100.00;64613.53;4888686;29;45620;-85
2023/05/10 03:32:44;;;;;;;;;0.33;0.00;;;;;-147.47;100.00;64613.53;4882294;28;45458;-78
2023/05/10 03:35:12;;;;;;;;;0.00;0.00;;;;;-147.47;100.00;64613.53;5045736;28;45575;-78
2023/05/10 03:37:37;;;;;;;;;0.67;0.00;;;;;-147.47;100.00;64613.53;5033237;28;46720;-77
2023/05/10 03:40:03;;;;;;;;;0.00;0.00;;;;;-147.47;100.00;64613.53;5050982;28;46080;-83
2023/05/10 03:42:35;;;;;;;;;0.00;0.00;;;;;-147.47;100.00;64613.53;5045214;28;45580;-83
2023/05/10 03:45:43;;;;;;;;;0.00;0.00;;;;;-147.47;100.00;64613.53;5042661;28;45786;-85
2023/05/10 03:54:32;;;;;;;;;0.33;0.00;;;;;-147.47;100.00;64613.53;5046225;28;45427;-82
2023/05/10 03:56:58;;;;;;;;;0.00;0.00;;;;;-147.47;100.00;64613.53;5061671;28;45346;-82
2023/05/10 03:59:24;;;;;;;;;0.67;0.00;;;;;-147.47;100.00;64613.53;5056909;28;45391;-82
2023/05/10 04:01:49;;;;;;;;;0.00;0.00;;;;;-147.47;100.00;64613.53;5056219;28;46658;-81
2023/05/10 04:04:15;;;;;;;;;0.00;0.00;;;;;-147.47;100.00;64613.53;5057012;28;45460;-82
2023/05/10 04:06:40;;;;;;;;;0.67;0.67;;;;;-147.47;100.00;64613.53;5041692;28;45319;-83
2023/05/10 04:09:10;;;;;;;;;0.00;0.00;;;;;-147.47;100.00;64613.53;5056148;28;45701;-86
2023/05/10 04:11:42;;;;;;;;;0.00;0.00;;;;;-147.47;100.00;64613.53;5035170;28;46244;-84
2023/05/10 04:18:40;;;;;;;;;;;;;;;;;;;;;
2023/05/10 04:21:34;;;;;;;;;0.33;0.33;;;;;-147.47;100.00;64613.53;4996567;28;74330;-82
2023/05/10 04:24:00;;;;;;;;;0.67;0.33;;;;;-147.47;100.00;64613.53;5020491;28;45887;-84
2023/05/10 04:26:25;;;;;;;;;0.00;0.00;;;;;-147.47;100.00;64613.53;5078290;27;45316;-84
2023/05/10 04:28:51;;;;;;;;;0.00;0.00;;;;;-147.47;100.00;64613.53;5077165;28;45631;-83
2023/05/10 04:31:18;;;;;;;;;1.33;0.00;;;;;-147.47;100.00;64613.53;5071932;28;45801;-84
2023/05/10 04:33:49;;;;;;;;;0.00;0.00;;;;;-147.47;100.00;64613.53;5073788;27;47366;-89
2023/05/10 04:36:15;;;;;;;;;0.00;0.00;;;;;-147.47;100.00;64613.53;5077443;28;45455;-85
2023/05/10 04:38:42;;;;;;;;;0.00;0.00;;;;;-147.47;100.00;64613.53;5077135;28;45539;-86
2023/05/10 04:41:11;;;;;;;;;0.00;0.00;;;;;-147.47;100.00;64613.53;5063120;27;47544;-79
2023/05/10 04:43:38;;;;;;;;;0.00;0.00;;;;;-147.47;100.00;64613.53;5056723;28;47602;-81
2023/05/10 04:46:04;;;;;;;;;2.50;0.00;;;;;-147.47;100.00;64613.53;5069103;27;45532;-82
2023/05/10 04:48:36;;;;;;;;;0.67;0.67;;;;;-147.47;100.00;64613.53;5059687;28;45417;-84
2023/05/10 04:51:15;;;;;;;;;0.00;0.00;;;;;-147.47;100.00;64613.53;5075915;28;45758;-82
2023/05/10 04:54:17;;;;;;;;;1.00;1.00;;;;;-147.47;100.00;64613.53;5055535;28;45384;-82
2023/05/10 04:56:43;;;;;;;;;5.00;3.00;;;;;-147.47;100.00;64613.53;5068461;27;45358;-83
2023/05/10 04:59:09;;;;;;;;;2.33;1.33;;;;;-147.47;100.00;64613.53;5053381;28;46018;-80
2023/05/10 05:01:34;;;;;;;;;1.33;0.00;;;;;-147.47;100.00;64613.53;5057529;28;45724;-80
2023/05/10 05:04:01;;;;;;;;;1.33;0.67;;;;;-147.47;100.00;64613.53;5074515;28;47225;-83
2023/05/10 05:06:28;;;;;;;;;1.33;1.33;;;;;-147.47;100.00;64613.53;5053455;28;45533;-82
2023/05/10 05:08:57;;;;;;;;;0.67;0.67;;;;;-147.47;100.00;64613.53;5049266;28;45550;-81
2023/05/10 05:11:22;;;;;;;;;1.00;0.00;;;;;-147.47;100.00;64613.53;5066349;28;45458;-82
2023/05/10 05:13:49;;;;;;;;;1.67;1.67;;;;;-147.47;100.00;64613.53;5072688;28;45695;-83
2023/05/10 05:16:15;;;;;;;;;0.33;0.00;;;;;-147.47;100.00;64613.53;5064005;27;45726;-82
2023/05/10 05:18:44;;;;;;;;;1.33;0.67;;;;;-147.47;100.00;64613.53;5058631;28;45454;-83
2023/05/10 05:21:17;;;;;;;;;1.00;1.00;;;;;-147.47;100.00;64613.53;5056830;28;46120;-83
2023/05/10 05:23:43;;;;;;;;;1.67;0.00;;;;;-147.47;100.00;64613.53;5057539;28;46826;-83
2023/05/10 05:26:08;;;;;;;;;1.00;1.00;;;;;-147.47;100.00;64613.53;5075396;28;45378;-84
2023/05/10 05:28:37;;;;;;;;;1.00;1.00;;;;;-147.47;100.00;64613.53;5072646;28;45765;-82
2023/05/10 05:31:05;;;;;;;;;0.67;0.67;;;;;-147.47;100.00;64613.53;5072429;27;45557;-79
2023/05/10 05:33:31;;;;;;;;;0.00;0.00;;;;;-147.47;100.00;64613.53;5079948;27;47263;-78
2023/05/10 05:35:56;;;;;;;;;0.33;0.33;;;;;-147.47;100.00;64613.53;5073108;28;45393;-79
2023/05/10 05:38:22;;;;;;;;;2.67;2.67;;;;;-147.47;100.00;64613.53;5059116;28;45518;-80
2023/05/10 05:40:47;;;;;;;;;2.00;1.00;;;;;-147.47;100.00;64613.53;5076894;28;45431;-79
2023/05/10 05:43:13;;;;;;;;;0.33;0.33;;;;;-147.47;100.00;64613.53;5055896;28;46943;-74
2023/05/10 05:45:38;;;;;;;;;2.00;2.00;;;;;-147.47;100.00;64613.53;5066585;27;45385;-74
2023/05/10 05:48:04;;;;;;;;;0.33;0.33;;;;;-147.47;100.00;64613.53;5052220;28;45481;-74
2023/05/10 05:50:29;;;;;;;;;1.00;1.00;;;;;-147.47;100.00;64613.53;5058812;28;45625;-73
2023/05/10 05:52:56;;;;;;;;;2.33;2.00;;;;;-147.47;100.00;64613.53;5061836;28;45664;-74
2023/05/10 05:55:21;;;;;;;;;3.67;2.00;;;;;-147.47;100.00;64613.53;5071714;27;45394;-75
2023/05/10 05:57:47;;;;;;;;;1.67;1.67;;;;;-147.47;100.00;64613.53;5062718;28;45742;-75
2023/05/10 06:00:13;;;;;;;;;2.67;1.67;;;;;-147.47;100.00;64613.53;5066235;28;45571;-75
2023/05/10 06:02:38;;;;;;;;;1.00;1.00;;;;;-147.47;100.00;64613.53;5069134;27;46478;-74
2023/05/10 06:05:04;;;;;;;;;3.00;1.00;;;;;-147.47;100.00;64613.53;5067402;27;45398;-74
2023/05/10 06:07:29;;;;;;;;;1.00;1.00;;;;;-147.47;100.00;64613.53;5060285;28;45437;-78
2023/05/10 06:09:55;;;;;;;;;2.00;1.00;;;;;-147.47;100.00;64613.53;5058885;27;45473;-78
2023/05/10 06:12:20;;;;;;;;;1.00;0.67;;;;;-147.47;100.00;64613.53;5055100;28;46216;-83
2023/05/10 06:14:46;;;;;;;;;1.33;1.33;;;;;-147.47;100.00;64613.53;5058947;28;45594;-82
2023/05/10 06:17:11;;;;;;;;;3.00;2.00;;;;;-147.47;100.00;64613.53;5072346;28;45382;-81
2023/05/10 06:19:36;;;;;;;;;1.33;1.33;;;;;-147.47;100.00;64613.53;5048128;28;45982;-76
2023/05/10 06:22:02;;;;;;;;;3.33;2.00;;;;;-147.47;100.00;64613.53;5063605;27;46429;-77
2023/05/10 06:24:28;;;;;;;;;2.00;2.00;;;;;-147.47;100.00;64613.53;5047565;28;46987;-83
2023/05/10 06:26:57;;;;;;;;;1.00;0.00;;;;;-147.47;100.00;64613.53;5048831;28;45885;-86
2023/05/10 06:29:23;;;;;;;;;2.00;2.00;;;;;-147.47;100.00;64613.53;5029834;28;45824;-80
2023/05/10 06:31:48;;;;;;;;;2.00;2.00;;;;;-147.47;100.00;64613.53;5050490;28;48279;-83
2023/05/10 06:34:14;;;;;;;;;2.33;2.33;;;;;-147.47;100.00;64613.53;5034962;28;45743;-80
2023/05/10 06:36:39;;;;;;;;;3.33;3.33;;;;;-147.47;100.00;64613.53;5048296;28;45529;-78
2023/05/10 06:39:05;;;;;;;;;3.33;2.33;;;;;-147.47;100.00;64613.53;5049500;28;46021;-78
2023/05/10 06:41:34;;;;;;;;;4.00;2.00;;;;;-147.47;100.00;64613.53;5029923;28;47460;-78
2023/05/10 06:43:59;;;;;;;;;5.33;2.33;;;;;-147.47;100.00;64613.53;5042895;28;45494;-77
2023/05/10 06:46:28;;;;;;;;;1.67;1.00;;;;;-147.47;100.00;64613.53;5053033;28;45480;-83
2023/05/10 06:48:53;;;;;;;;;9.00;3.00;;;;;-147.47;100.00;64613.53;5048715;28;45470;-78
2023/05/10 06:51:34;;;;;;;;;2.00;2.00;;;;;-147.47;100.00;64613.53;5040017;28;46877;-82
2023/05/10 06:54:01;;;;;;;;;4.00;2.00;;;;;-147.47;100.00;64613.53;5049516;28;44892;-84
2023/05/10 06:56:27;;;;;;;;;2.67;1.00;;;;;-147.47;100.00;64613.53;5048703;28;45793;-82
2023/05/10 06:58:53;;;;;;;;;3.00;3.00;;;;;-147.47;100.00;64613.53;5047319;28;45864;-82
2023/05/10 07:01:18;;;;;;;;;5.00;3.00;;;;;-147.47;100.00;64613.53;5040315;28;45803;-83
2023/05/10 07:03:44;;;;;;;;;5.00;2.00;;;;;-147.47;100.00;64613.53;5051287;28;45741;-81
2023/05/10 07:06:10;;;;;;;;;2.00;2.00;;;;;-147.47;100.00;64613.53;5048791;28;45739;-77
2023/05/10 07:08:35;;;;;;;;;5.33;3.00;;;;;-147.47;100.00;64613.53;5053904;28;45942;-82
2023/05/10 07:11:05;;;;;;;;;4.33;4.00;;;;;-147.47;100.00;64613.53;5038718;28;47151;-81
2023/05/10 07:13:31;;;;;;;;;3.00;2.00;;;;;-147.47;100.00;64613.53;5062367;28;45907;-83
2023/05/10 07:15:58;;;;;;;;;3.33;2.00;;;;;-147.47;100.00;64613.53;5075616;28;45834;-81
2023/05/10 07:18:24;;;;;;;;;2.33;2.33;;;;;-147.47;100.00;64613.53;5059297;28;45922;-82
2023/05/10 07:20:49;;;;;;;;;5.00;3.33;;;;;-147.47;100.00;64613.53;5037642;28;45509;-82
2023/05/10 07:23:14;;;;;;;;;4.00;2.00;;;;;-147.47;100.00;64613.53;5058234;28;45419;-78
2023/05/10 07:25:40;;;;;;;;;3.00;3.00;;;;;-147.47;100.00;64613.53;5067081;27;45761;-77
2023/05/10 07:28:06;;;;;;;;;3.00;2.00;;;;;-147.47;100.00;64613.53;5075007;27;46896;-77
2023/05/10 07:30:31;;;;;;;;;2.00;2.00;;;;;-147.47;100.00;64613.53;5053708;28;47126;-78
2023/05/10 07:32:56;;;;;;;;;3.00;3.00;;;;;-147.47;100.00;64613.53;5070498;27;45555;-79
2023/05/10 07:35:22;;;;;;;;;4.67;3.00;;;;;-147.47;100.00;64613.53;5075347;27;45488;-82
2023/05/10 07:37:48;;;;;;;;;4.33;4.33;;;;;-147.47;100.00;64613.53;5075433;27;45390;-79
2023/05/10 07:40:16;;;;;;;;;3.67;3.33;;;;;-147.47;100.00;64613.53;5070160;28;45539;-79
2023/05/10 07:42:41;;;;;;;;;5.33;3.67;;;;;-147.47;100.00;64613.53;5073126;27;45469;-82
2023/05/10 07:45:08;;;;;;;;;5.00;5.00;;;;;-147.47;100.00;64613.53;5063089;28;45437;-80
2023/05/10 07:47:34;;;;;;;;;3.00;3.00;;;;;-147.47;100.00;64613.53;5078206;27;45566;-78
2023/05/10 07:49:59;;;;;;;;;5.00;3.67;;;;;-147.47;100.00;64613.53;5064369;28;48218;-81
2023/05/10 07:52:25;;;;;;;;;5.67;3.00;;;;;-147.47;100.00;64613.53;5076252;28;45444;-78
2023/05/10 07:54:52;;;;;;;;;4.00;3.00;;;;;-147.47;100.00;64613.53;5052427;28;45929;-79
2023/05/10 07:57:18;;;;;;;;;3.00;2.67;;;;;-147.47;100.00;64613.53;5076259;27;45716;-79
2023/05/10 07:59:45;;;;;;;;;4.00;4.00;;;;;-147.47;100.00;64613.53;5058291;28;46391;-82
2023/05/10 08:02:10;;;;;;;;;3.00;3.00;;;;;-147.47;100.00;64613.53;5052601;27;45568;-80
2023/05/10 08:04:36;;;;;;;;;4.00;4.00;;;;;-147.47;100.00;64613.53;5050218;28;45708;-83
2023/05/10 08:07:05;;;;;;;;;4.00;3.67;;;;;-147.47;100.00;64613.53;5068254;27;46080;-84
2023/05/10 08:09:30;;;;;;;;;6.33;5.00;;;;;-147.47;100.00;64613.53;5045269;28;48045;-78
2023/05/10 08:11:56;;;;;;;;;5.67;4.67;;;;;-147.47;100.00;64613.53;5043850;28;45904;-81
2023/05/10 08:14:21;;;;;;;;;9.33;8.00;;;;;-147.47;100.00;64613.53;5042348;28;45701;-79
2023/05/10 08:16:47;;;;;;;;;8.33;7.33;;;;;-147.47;100.00;64613.53;5063640;27;45812;-81
2023/05/10 08:19:13;;;;;;;;;6.33;5.00;;;;;-147.47;100.00;64613.53;5067748;27;46103;-78
2023/05/10 08:21:40;;;;;;;;;8.67;6.00;;;;;-147.47;100.00;64613.53;5077117;27;45487;-82
2023/05/10 08:24:05;;;;;;;;;7.67;5.33;;;;;-147.47;100.00;64613.53;5078495;27;45779;-82
2023/05/10 08:26:37;;;;;;;;;4.67;3.67;;;;;-147.47;100.00;64613.53;5056436;28;47096;-80
2023/05/10 08:29:06;;;;;;;;;6.33;6.33;;;;;-147.47;100.00;64613.53;5082267;27;46260;-83
2023/05/10 08:31:31;;;;;;;;;9.00;8.00;;;;;-147.47;100.00;64613.53;5054128;28;45478;-83
2023/05/10 08:33:57;;;;;;;;;8.67;7.33;;;;;-147.47;100.00;64613.53;5055786;28;45729;-81
2023/05/10 08:36:24;;;;;;;;;7.33;5.33;;;;;-147.47;100.00;64613.53;5071826;27;46095;-83
2023/05/10 08:38:52;;;;;;;;;3.33;3.33;;;;;-147.47;100.00;64613.53;5055954;27;48658;-84
2023/05/10 08:41:21;;;;;;;;;4.33;4.33;;;;;-147.47;100.00;64613.53;5066202;27;45831;-83
2023/05/10 08:43:50;;;;;;;;;9.33;7.33;;;;;-147.47;100.00;64613.53;5072528;27;45831;-80
2023/05/10 08:46:23;;;;;;;;;7.33;7.33;;;;;-147.47;100.00;64613.53;5067563;27;45938;-79
2023/05/10 08:48:51;;;;;;;;;10.33;8.00;;;;;-147.47;100.00;64613.53;5054901;28;46930;-78
2023/05/10 08:51:30;;;;;;;;;6.33;6.33;;;;;-147.47;100.00;64613.53;5075625;28;45595;-85
2023/05/10 08:53:59;;;;;;;;;8.00;6.67;;;;;-147.47;100.00;64613.53;5055885;28;45566;-82
2023/05/10 08:56:25;;;;;;;;;7.33;5.00;;;;;-147.47;100.00;64613.53;5056356;28;46168;-78
2023/05/10 08:58:52;;;;;;;;;8.67;6.67;;;;;-147.47;100.00;64613.53;5138568;22;47044;-82
2023/05/10 09:01:19;;;;;;;;;10.00;8.00;;;;;-147.47;100.00;64613.53;5045200;28;45467;-82
2023/05/10 09:03:47;;;;;;;;;9.00;7.67;;;;;-147.47;100.00;64613.53;5035065;28;45650;-82
2023/05/10 09:06:42;;;;;;;;;6.67;6.67;;;;;-147.47;100.00;64613.53;5043004;28;46498;-81
2023/05/10 09:09:08;;;;;;;;;10.00;7.75;;;;;-147.47;100.00;64613.53;5048716;28;45846;-79
2023/05/10 09:11:35;;;;;;;;;11.33;5.33;;;;;-147.47;100.00;64613.53;5040659;28;45468;-78
2023/05/10 09:14:02;;;;;;;;;4.33;4.33;;;;;-147.47;100.00;64613.53;5045497;28;45615;-83
2023/05/10 09:16:32;;;;;;;;;9.00;7.33;;;;;-147.47;100.00;64613.53;5049631;28;45331;-84
2023/05/10 09:18:58;;;;;;;;;9.00;5.00;;;;;-147.47;100.00;64613.53;5042676;28;47116;-78
2023/05/10 09:21:23;;;;;;;;;6.00;4.75;;;;;-147.47;100.00;64613.53;5062177;28;45511;-82
2023/05/10 09:24:00;;;;;;;;;;;;;;;;;;;;;
2023/05/10 09:26:47;;;;;;;;;7.00;5.33;;;;;-147.47;100.00;64613.53;5054777;28;73337;-83
2023/05/10 09:29:14;;;;;;;;;8.33;7.00;;;;;-147.47;100.00;64613.53;5070942;27;45535;-81
2023/05/10 09:31:47;;;;;;;;;7.33;4.33;;;;;-147.47;100.00;64613.53;5054181;28;45722;-84
2023/05/10 09:34:18;;;;;;;;;5.67;5.67;;;;;-147.47;100.00;64613.53;5044752;28;45716;-85
2023/05/10 09:36:56;;;;;;;;;7.00;5.00;;;;;-147.47;100.00;64613.53;5044766;28;45500;-82
2023/05/10 09:39:37;;;;;;;;;6.33;6.00;;;;;-147.47;100.00;64613.53;5058883;28;45873;-78
2023/05/10 09:42:05;;;;;;;;;8.50;6.00;;;;;-147.47;100.00;64613.53;5051427;28;45547;-82
2023/05/10 09:44:35;;;;;;;;;6.67;6.00;;;;;-147.47;100.00;64613.53;5066349;28;45747;-82
2023/05/10 09:47:02;;;;;;;;;4.00;4.00;;;;;-147.47;100.00;64613.53;5054777;27;45854;-83
2023/05/10 09:49:28;;;;;;;;;11.33;7.67;;;;;-147.47;100.00;64613.53;5059690;28;46650;-80
2023/05/10 09:52:07;;;;;;;;;6.75;6.75;;;;;-147.47;100.00;64613.53;5049756;27;45539;-80
2023/05/10 09:54:37;;;;;;;;;10.00;6.33;;;;;-147.47;100.00;64613.53;5049656;28;45985;-83
2023/05/10 09:57:03;;;;;;;;;7.33;5.00;;;;;-147.47;100.00;64613.53;5042859;28;45571;-83
2023/05/10 09:59:29;;;;;;;;;9.67;6.67;;;;;-147.47;100.00;64613.53;5060764;28;45559;-79
2023/05/10 10:01:59;;;;;;;;;5.67;5.67;;;;;-147.47;100.00;64613.53;5064690;27;45559;-83
2023/05/10 10:04:24;;;;;;;;;8.00;6.33;;;;;-147.47;100.00;64613.53;5054183;28;44836;-83
2023/05/10 10:07:01;;;;;;;;;6.33;5.00;;;;;-147.47;100.00;64613.53;5069579;27;45696;-81
2023/05/10 10:09:27;;;;;;;;;8.33;6.67;;;;;-147.47;100.00;64613.53;5049059;28;47070;-81
2023/05/10 10:11:54;;;;;;;;;10.00;8.00;;;;;-147.47;100.00;64613.53;5069221;27;45655;-83
2023/05/10 10:14:20;;;;;;;;;8.67;5.33;;;;;-147.47;100.00;64613.53;5065688;27;45679;-84
2023/05/10 10:16:46;;;;;;;;;9.00;9.00;;;;;-147.47;100.00;64613.53;5064244;27;45979;-82
2023/05/10 10:19:12;;;;;;;;;6.67;4.00;;;;;-147.47;100.00;64613.53;5058632;28;47867;-81
2023/05/10 10:21:42;;;;;;;;;9.00;7.67;;;;;-147.47;100.00;64613.53;5064241;28;45857;-80
2023/05/10 10:24:09;;;;;;;;;6.75;6.75;;;;;-147.47;100.00;64613.53;5068723;27;45721;-80
2023/05/10 10:26:38;;;;;;;;;8.00;6.33;;;;;-147.47;100.00;64613.53;5048533;28;45805;-79
2023/05/10 10:29:33;;;;;;;;;9.00;5.33;;;;;-147.47;100.00;64613.53;5074289;27;46033;-80
2023/05/10 10:32:11;;;;;;;;;9.00;6.33;;;;;-147.47;100.00;64613.53;5075437;27;45712;-79
2023/05/10 10:34:38;;;;;;;;;4.50;3.50;;;;;-147.47;100.00;64613.53;5051954;28;45825;-84
2023/05/10 10:37:06;;;;;;;;;6.00;3.25;;;;;-147.47;100.00;64613.53;5058092;27;45660;-80
2023/05/10 10:39:36;;;;;;;;;7.25;6.00;;;;;-147.47;100.00;64613.53;5063147;27;46859;-78
2023/05/10 10:42:03;;;;;;;;;10.33;8.67;;;;;-147.47;100.00;64613.53;5048475;28;45445;-81
2023/05/10 10:44:38;;;;;;;;;6.00;6.00;;;;;-147.47;100.00;64613.53;5067519;27;45593;-82
2023/05/10 10:47:28;;;;;;;;;9.75;6.00;;;;;-147.47;100.00;64613.53;5071288;27;46043;-85
2023/05/10 10:50:00;;;;;;;;;7.25;7.25;;;;;-147.47;100.00;64613.53;5065229;28;46385;-85
2023/05/10 10:52:38;;;;;;;;;8.00;7.00;;;;;-147.47;100.00;64613.53;5041702;28;45643;-82
2023/05/10 10:55:08;;;;;;;;;10.75;6.75;;;;;-147.47;100.00;64613.53;5071315;27;45465;-83
2023/05/10 10:57:45;;;;;;;;;11.67;8.67;;;;;-147.47;100.00;64613.53;5049169;28;45577;-80
2023/05/10 11:00:40;;;;;;;;;8.25;5.50;;;;;-147.47;100.00;64613.53;5065751;27;45527;-83
2023/05/10 11:03:14;;;;;;;;;9.25;7.25;;;;;-147.47;100.00;64613.53;5043780;28;45439;-80
2023/05/10 11:05:47;;;;;;;;;8.33;6.00;;;;;-147.47;100.00;64613.53;5058954;28;45955;-82
2023/05/10 11:08:29;;;;;;;;;4.75;4.25;;;;;-147.47;100.00;64613.53;5040021;28;47375;-82
2023/05/10 11:11:07;;;;;;;;;5.25;4.00;;;;;-147.47;100.00;64613.53;5061873;27;45786;-81
2023/05/10 11:13:32;;;;;;;;;5.75;5.75;;;;;-147.47;100.00;64613.53;5048527;28;45573;-81
2023/05/10 11:16:09;;;;;;;;;7.25;6.00;;;;;-147.47;100.00;64613.53;5061381;28;45429;-81
2023/05/10 11:18:38;;;;;;;;;7.00;6.00;;;;;-147.47;100.00;64613.53;5079404;27;45603;-80
2023/05/10 11:21:04;;;;;;;;;8.00;8.00;;;;;-147.47;100.00;64613.53;5051162;28;48152;-80
2023/05/10 11:23:51;;;;;;;;;6.00;5.00;;;;;-147.47;100.00;64613.53;5052230;28;45554;-81
2023/05/10 11:26:17;;;;;;;;;5.75;5.75;;;;;-147.47;100.00;64613.53;5051281;27;45980;-79
2023/05/10 11:28:44;;;;;;;;;4.75;4.75;;;;;-147.47;100.00;64613.53;5064031;27;45548;-80
2023/05/10 11:31:12;;;;;;;;;7.00;5.00;;;;;-147.47;100.00;64613.53;5056525;27;45922;-79
2023/05/10 11:33:51;;;;;;;;;7.50;6.00;;;;;-147.47;100.00;64613.53;5062788;27;45885;-83
2023/05/10 11:39:11;;;;;;;;;8.00;4.50;;;;;-147.47;100.00;64613.53;5004071;28;45764;-74
2023/05/10 11:41:39;;;;;;;;;6.50;5.00;;;;;-147.47;100.00;64613.53;5001675;28;46832;-76
2023/05/10 11:44:05;;;;;;;;;5.50;4.00;;;;;-147.47;100.00;64613.53;4998199;28;45435;-77
2023/05/10 11:46:30;;;;;;;;;8.75;4.25;;;;;-147.47;100.00;64613.53;5021781;28;45400;-78
2023/05/10 11:49:06;;;;;;;;;7.25;4.25;;;;;-147.47;100.00;64613.53;5016791;28;45527;-77
2023/05/10 11:51:36;;;;;;;;;4.75;4.00;;;;;-147.47;100.00;64613.53;5001116;28;46672;-76
2023/05/10 11:54:07;;;;;;;;;4.25;3.25;;;;;-147.47;100.00;64613.53;4997615;28;45478;-81
2023/05/10 11:56:33;;;;;;;;;3.50;3.50;;;;;-147.47;100.00;64613.53;5022550;28;45591;-84
2023/05/10 11:59:01;;;;;;;;;5.25;4.00;;;;;-147.47;100.00;64613.53;5021957;28;45520;-85
2023/05/10 12:01:28;;;;;;;;;5.00;5.00;;;;;-147.47;100.00;64613.53;4995871;28;48576;-77
2023/05/10 12:04:29;;;;;;;;;6.75;4.25;;;;;-147.47;100.00;64613.53;5003267;28;45917;-80
2023/05/10 12:07:01;;;;;;;;;7.00;5.00;;;;;-147.47;100.00;64613.53;5020517;28;45498;-83
2023/05/10 12:09:31;;;;;;;;;4.75;4.75;;;;;-147.47;100.00;64613.53;5013733;28;45551;-80
2023/05/10 12:12:20;;;;;;;;;5.00;4.00;;;;;-147.47;100.00;64613.53;5018635;28;45521;-80
2023/05/10 12:15:10;;;;;;;;;4.75;3.00;;;;;-147.47;100.00;64613.53;4996749;28;45824;-78
2023/05/10 12:18:03;;;;;;;;;;;;;;;;;;;;;
2023/05/10 12:20:32;;;;;;;;;4.25;3.00;;;;;-147.47;100.00;64613.53;5017480;28;73955;-83
2023/05/10 12:23:02;;;;;;;;;5.00;4.00;;;;;-147.47;100.00;64613.53;4999582;28;46520;-83
2023/05/10 12:25:43;;;;;;;;;3.25;0.75;;;;;-147.47;100.00;64613.53;5014842;28;45675;-80
2023/05/10 12:28:09;;;;;;;;;8.50;4.75;;;;;-147.47;100.00;64613.53;4998586;28;45883;-78
2023/05/10 12:30:43;;;;;;;;;5.25;5.25;;;;;-147.47;100.00;64613.53;4996067;28;46355;-80
2023/05/10 12:33:18;;;;;;;;;3.50;3.25;;;;;-147.47;100.00;64613.53;5004032;28;45831;-80
2023/05/10 12:35:48;;;;;;;;;4.50;3.75;;;;;-147.47;100.00;64613.53;5011404;28;45975;-78